createdAt,value
2022-12-11T00:00:06.285Z,-3.08
2022-12-11T00:02:32.783Z,-3.07
2022-12-11T00:04:59.286Z,-3.06
2022-12-11T00:07:25.814Z,-3.08
2022-12-11T00:09:52.417Z,-3.10
2022-12-11T00:12:18.930Z,-3.11
2022-12-11T00:14:45.389Z,-3.13
2022-12-11T00:17:11.977Z,-3.14
2022-12-11T00:19:38.463Z,-3.17
2022-12-11T00:22:04.953Z,-3.18
2022-12-11T00:24:31.554Z,-3.19
2022-12-11T00:26:59.030Z,-3.26
2022-12-11T00:29:25.511Z,-3.21
2022-12-11T00:31:52.049Z,-3.22
2022-12-11T00:34:18.559Z,-3.21
2022-12-11T00:36:45.101Z,-3.26
2022-12-11T00:39:11.614Z,-3.25
2022-12-11T00:41:38.120Z,-3.27
2022-12-11T00:44:04.854Z,-3.29
2022-12-11T00:46:32.470Z,-3.27
2022-12-11T00:48:58.952Z,-3.28
2022-12-11T00:51:25.593Z,-3.31
2022-12-11T00:53:52.384Z,-3.31
2022-12-11T00:56:21.226Z,-3.31
2022-12-11T00:58:49.099Z,-3.31
2022-12-11T01:01:21.729Z,-3.33
2022-12-11T01:03:48.676Z,-3.32
2022-12-11T01:06:22.300Z,-3.33
2022-12-11T01:08:49.442Z,-3.32
2022-12-11T01:11:16.829Z,-3.33
2022-12-11T01:13:43.428Z,-3.32
2022-12-11T01:16:13.303Z,-3.33
2022-12-11T01:18:40.258Z,-3.33
2022-12-11T01:21:08.663Z,-3.35
2022-12-11T01:23:35.230Z,-3.35
2022-12-11T01:26:10.305Z,-3.42
2022-12-11T01:28:36.963Z,-3.36
2022-12-11T01:31:08.210Z,-3.38
2022-12-11T01:33:34.795Z,-3.38
2022-12-11T01:36:01.267Z,-3.37
2022-12-11T01:38:27.794Z,-3.39
2022-12-11T01:40:54.261Z,-3.41
2022-12-11T01:43:20.826Z,-3.44
2022-12-11T01:45:48.741Z,-3.44
2022-12-11T01:48:23.538Z,-3.48
2022-12-11T01:50:53.599Z,-3.54
2022-12-11T01:53:25.191Z,-3.52
2022-12-11T01:55:54.849Z,-3.55
2022-12-11T01:58:25.869Z,-3.55
2022-12-11T02:00:53.224Z,-3.51
2022-12-11T02:03:19.785Z,-3.54
2022-12-11T02:05:46.364Z,-3.56
2022-12-11T02:08:12.921Z,-3.57
2022-12-11T02:11:20.815Z,-3.58
2022-12-11T02:14:17.169Z,-3.65
2022-12-11T02:16:51.940Z,-3.59
2022-12-11T02:19:45.213Z,-3.67
2022-12-11T02:22:19.253Z,-3.61
2022-12-11T02:25:18.081Z,-3.65
2022-12-11T02:27:52.325Z,-3.72
2022-12-11T02:30:19.096Z,-3.64
2022-12-11T02:32:47.905Z,-3.71
2022-12-11T02:35:19.116Z,-3.64
2022-12-11T02:37:47.957Z,-3.70
2022-12-11T02:40:19.209Z,-3.64
2022-12-11T02:42:48.703Z,-3.65
2022-12-11T02:45:16.968Z,-3.64
2022-12-11T02:47:47.107Z,-3.68
2022-12-11T02:50:17.250Z,-3.64
2022-12-11T02:52:46.091Z,-3.72
2022-12-11T02:55:15.393Z,-3.73
2022-12-11T02:57:52.791Z,-3.74
2022-12-11T03:00:19.665Z,-3.69
2022-12-11T03:02:46.433Z,-3.72
2022-12-11T03:05:14.328Z,-3.73
2022-12-11T03:07:43.348Z,-3.78
2022-12-11T03:10:12.148Z,-3.73
2022-12-11T03:12:41.910Z,-3.73
2022-12-11T03:15:13.190Z,-3.74
2022-12-11T03:17:47.066Z,-3.74
2022-12-11T03:20:22.752Z,-3.75
2022-12-11T03:23:20.023Z,-3.77
2022-12-11T03:25:56.144Z,-3.84
2022-12-11T03:28:31.801Z,-3.81
2022-12-11T03:31:05.597Z,-3.83
2022-12-11T03:33:42.631Z,-3.90
2022-12-11T03:36:18.838Z,-3.84
2022-12-11T03:38:57.570Z,-3.86
2022-12-11T03:41:27.408Z,-3.94
2022-12-11T03:43:57.041Z,-3.89
2022-12-11T03:46:29.943Z,-3.89
2022-12-11T03:49:01.491Z,-3.97
2022-12-11T03:51:30.966Z,-3.91
2022-12-11T03:53:58.395Z,-3.89
2022-12-11T03:56:28.515Z,-3.89
2022-12-11T03:58:55.074Z,-3.89
2022-12-11T04:01:21.582Z,-3.90
2022-12-11T04:03:48.159Z,-3.90
2022-12-11T04:06:14.626Z,-3.92
2022-12-11T04:08:41.120Z,-3.90
2022-12-11T04:11:07.619Z,-3.93
2022-12-11T04:13:34.157Z,-3.91
2022-12-11T04:16:00.711Z,-3.92
2022-12-11T04:18:27.250Z,-3.94
2022-12-11T04:20:55.270Z,-4.01
2022-12-11T04:23:21.810Z,-3.97
2022-12-11T04:25:48.281Z,-3.99
2022-12-11T04:28:14.857Z,-3.99
2022-12-11T04:30:41.531Z,-4.01
2022-12-11T04:33:08.135Z,-4.03
2022-12-11T04:35:34.601Z,-4.05
2022-12-11T04:38:01.121Z,-4.05
2022-12-11T04:40:27.638Z,-4.07
2022-12-11T04:42:54.108Z,-4.06
2022-12-11T04:45:20.631Z,-4.07
2022-12-11T04:47:47.115Z,-4.08
2022-12-11T04:50:15.231Z,-4.08
2022-12-11T04:52:42.585Z,-4.09
2022-12-11T04:55:11.108Z,-4.10
2022-12-11T04:57:38.231Z,-4.09
2022-12-11T05:00:07.691Z,-4.11
2022-12-11T05:02:35.851Z,-4.12
2022-12-11T05:05:04.278Z,-4.13
2022-12-11T05:07:30.826Z,-4.11
2022-12-11T05:09:57.408Z,-4.15
2022-12-11T05:12:23.924Z,-4.16
2022-12-11T05:14:54.482Z,-4.15
2022-12-11T05:17:22.374Z,-4.17
2022-12-11T05:19:49.918Z,-4.17
2022-12-11T05:22:17.601Z,-4.18
2022-12-11T05:24:45.256Z,-4.19
2022-12-11T05:27:12.253Z,-4.20
2022-12-11T05:29:38.736Z,-4.20
2022-12-11T05:32:05.451Z,-4.21
2022-12-11T05:34:31.980Z,-4.22
2022-12-11T05:36:58.514Z,-4.23
2022-12-11T05:39:24.957Z,-4.25
2022-12-11T05:41:51.441Z,-4.24
2022-12-11T05:44:17.928Z,-4.26
2022-12-11T05:46:44.480Z,-4.27
2022-12-11T05:49:11.066Z,-4.27
2022-12-11T05:51:37.598Z,-4.27
2022-12-11T05:54:04.267Z,-4.28
2022-12-11T05:56:33.379Z,-4.31
2022-12-11T05:59:02.019Z,-4.35
2022-12-11T06:01:31.679Z,-4.41
2022-12-11T06:03:58.934Z,-4.40
2022-12-11T06:06:26.402Z,-4.42
2022-12-11T06:08:54.521Z,-4.40
2022-12-11T06:11:24.083Z,-4.43
2022-12-11T06:13:51.513Z,-4.43
2022-12-11T06:16:18.131Z,-4.42
2022-12-11T06:18:45.642Z,-4.44
2022-12-11T06:21:19.516Z,-4.40
2022-12-11T06:23:47.984Z,-4.40
2022-12-11T06:26:15.346Z,-4.39
2022-12-11T06:28:41.903Z,-4.40
2022-12-11T06:31:08.521Z,-4.37
2022-12-11T06:33:35.838Z,-4.31
2022-12-11T06:36:07.654Z,-4.30
2022-12-11T06:38:34.302Z,-4.25
2022-12-11T06:41:02.682Z,-4.22
2022-12-11T06:43:29.152Z,-4.17
2022-12-11T06:46:00.607Z,-4.15
2022-12-11T06:48:30.031Z,-4.10
2022-12-11T06:50:56.564Z,-4.06
2022-12-11T06:53:23.113Z,-4.02
2022-12-11T06:55:49.582Z,-3.98
2022-12-11T06:58:16.178Z,-3.94
2022-12-11T07:00:42.713Z,-3.90
2022-12-11T07:03:10.089Z,-3.85
2022-12-11T07:05:36.608Z,-3.81
2022-12-11T07:08:03.188Z,-3.78
2022-12-11T07:10:29.738Z,-3.74
2022-12-11T07:12:56.318Z,-3.70
2022-12-11T07:15:22.844Z,-3.65
2022-12-11T07:17:49.412Z,-3.62
2022-12-11T07:20:16.046Z,-3.58
2022-12-11T07:22:46.421Z,-3.56
2022-12-11T07:25:13.933Z,-3.54
2022-12-11T07:27:41.352Z,-3.54
2022-12-11T07:30:09.065Z,-3.54
2022-12-11T07:32:35.631Z,-3.57
2022-12-11T07:35:02.365Z,-3.59
2022-12-11T07:37:28.895Z,-3.61
2022-12-11T07:39:55.379Z,-3.63
2022-12-11T07:42:21.859Z,-3.65
2022-12-11T07:44:48.350Z,-3.67
2022-12-11T07:47:14.905Z,-3.68
2022-12-11T07:49:41.381Z,-3.69
2022-12-11T07:52:07.874Z,-3.69
2022-12-11T07:54:34.368Z,-3.69
2022-12-11T07:57:01.627Z,-3.69
2022-12-11T07:59:28.107Z,-3.70
2022-12-11T08:01:54.653Z,-3.69
2022-12-11T08:04:21.114Z,-3.68
2022-12-11T08:06:47.599Z,-3.67
2022-12-11T08:09:20.675Z,-3.70
2022-12-11T08:11:49.736Z,-3.70
2022-12-11T08:14:16.372Z,-3.69
2022-12-11T08:16:42.938Z,-3.64
2022-12-11T08:19:11.610Z,-3.67
2022-12-11T08:21:38.301Z,-3.60
2022-12-11T08:24:04.909Z,-3.60
2022-12-11T08:26:31.701Z,-3.59
2022-12-11T08:28:58.863Z,-3.59
2022-12-11T08:31:26.214Z,-3.59
2022-12-11T08:33:53.174Z,-3.56
2022-12-11T08:36:21.617Z,-3.59
2022-12-11T08:38:49.700Z,-3.52
2022-12-11T08:41:21.984Z,-3.47
2022-12-11T08:43:49.224Z,-3.43
2022-12-11T08:46:15.771Z,-3.39
2022-12-11T08:48:43.446Z,-3.36
2022-12-11T08:51:15.837Z,-3.36
2022-12-11T08:53:43.033Z,-3.32
2022-12-11T08:56:15.359Z,-3.36
2022-12-11T08:58:42.645Z,-3.29
2022-12-11T09:01:14.556Z,-3.24
2022-12-11T09:03:41.285Z,-3.23
2022-12-11T09:06:10.851Z,-3.25
2022-12-11T09:08:37.666Z,-3.22
2022-12-11T09:11:13.613Z,-3.21
2022-12-11T09:13:41.343Z,-3.20
2022-12-11T09:16:10.807Z,-3.18
2022-12-11T09:18:38.970Z,-3.15
2022-12-11T09:21:08.816Z,-3.13
2022-12-11T09:23:35.625Z,-3.02
2022-12-11T09:26:09.850Z,-2.98
2022-12-11T09:28:39.032Z,-2.94
2022-12-11T09:31:18.225Z,-2.95
2022-12-11T09:33:45.535Z,-2.85
2022-12-11T09:36:12.199Z,-2.82
2022-12-11T09:38:39.455Z,-2.79
2022-12-11T09:41:21.142Z,-2.78
2022-12-11T09:44:12.399Z,-2.77
2022-12-11T09:46:40.724Z,-2.76
2022-12-11T09:49:26.215Z,-2.72
2022-12-11T09:52:20.158Z,-2.70
2022-12-11T09:54:55.781Z,-2.73
2022-12-11T09:57:43.828Z,-2.66
2022-12-11T10:00:19.864Z,-2.63
2022-12-11T10:03:19.666Z,-2.59
2022-12-11T10:06:17.995Z,-2.60
2022-12-11T10:09:11.392Z,-2.61
2022-12-11T10:11:56.928Z,-2.55
2022-12-11T10:14:39.254Z,-2.52
2022-12-11T10:17:30.827Z,-2.50
2022-12-11T10:20:05.679Z,-2.49
2022-12-11T10:22:33.679Z,-2.45
2022-12-11T10:25:10.726Z,-2.51
2022-12-11T10:27:40.662Z,-2.46
2022-12-11T10:30:25.396Z,-2.50
2022-12-11T10:33:20.726Z,-2.41
2022-12-11T10:35:56.245Z,-2.39
2022-12-11T10:38:35.031Z,-2.38
2022-12-11T10:41:02.988Z,-2.27
2022-12-11T10:43:39.734Z,-2.25
2022-12-11T10:46:14.292Z,-2.16
2022-12-11T10:48:53.102Z,-2.14
2022-12-11T10:51:22.175Z,-1.96
2022-12-11T10:53:54.930Z,-1.86
2022-12-11T10:56:30.465Z,-1.79
2022-12-11T10:58:58.214Z,-1.73
2022-12-11T11:01:27.879Z,-1.67
2022-12-11T11:04:26.994Z,-1.60
2022-12-11T11:07:13.991Z,-1.50
2022-12-11T11:09:41.307Z,-1.43
2022-12-11T11:12:23.499Z,-1.38
2022-12-11T11:15:18.620Z,-1.27
2022-12-11T11:17:55.885Z,-1.24
2022-12-11T11:20:26.694Z,-1.10
2022-12-11T11:22:59.503Z,-1.10
2022-12-11T11:25:28.567Z,-1.05
2022-12-11T11:27:58.509Z,-0.98
2022-12-11T11:30:28.408Z,-0.97
2022-12-11T11:32:57.994Z,-0.91
2022-12-11T11:35:27.488Z,-0.97
2022-12-11T11:38:17.832Z,-0.92
2022-12-11T11:41:15.453Z,-0.88
2022-12-11T11:43:48.743Z,-0.82
2022-12-11T11:46:24.352Z,-0.78
2022-12-11T11:49:04.097Z,-0.79
2022-12-11T11:51:36.197Z,-0.75
2022-12-11T11:54:25.225Z,-0.76
2022-12-11T11:56:55.805Z,-0.73
2022-12-11T11:59:31.982Z,-0.64
2022-12-11T12:01:58.835Z,-0.65
2022-12-11T12:04:31.580Z,-0.63
2022-12-11T12:07:21.405Z,-0.58
2022-12-11T12:09:53.868Z,-0.53
2022-12-11T12:12:38.341Z,-0.48
2022-12-11T12:15:33.060Z,-0.43
2022-12-11T12:18:27.869Z,-0.37
2022-12-11T12:21:17.070Z,-0.37
2022-12-11T12:24:08.299Z,-0.37
2022-12-11T12:26:44.442Z,-0.43
2022-12-11T12:29:25.720Z,-0.36
2022-12-11T12:32:21.433Z,-0.35
2022-12-11T12:35:17.168Z,-0.34
2022-12-11T12:37:52.792Z,-0.37
2022-12-11T12:40:31.448Z,-0.38
2022-12-11T12:43:35.270Z,-0.37
2022-12-11T12:46:17.063Z,-0.37
2022-12-11T12:48:45.075Z,-0.44
2022-12-11T12:51:16.032Z,-0.41
2022-12-11T12:53:54.379Z,-0.48
2022-12-11T12:56:22.233Z,-0.39
2022-12-11T12:58:48.716Z,-0.37
2022-12-11T13:01:27.417Z,-0.36
2022-12-11T13:04:02.074Z,-0.34
2022-12-11T13:06:34.527Z,-0.35
2022-12-11T13:09:22.713Z,-0.45
2022-12-11T13:11:51.560Z,-0.43
2022-12-11T13:14:17.991Z,-0.48
2022-12-11T13:16:47.386Z,-0.51
2022-12-11T13:19:22.977Z,-0.51
2022-12-11T13:21:58.288Z,-0.55
2022-12-11T13:24:28.085Z,-0.61
2022-12-11T13:26:55.162Z,-0.55
2022-12-11T13:29:37.082Z,-0.62
2022-12-11T13:32:09.517Z,-0.57
2022-12-11T13:34:41.582Z,-0.63
2022-12-11T13:37:26.566Z,-0.63
2022-12-11T13:39:53.492Z,-0.64
2022-12-11T13:42:38.742Z,-0.65
2022-12-11T13:45:05.559Z,-0.63
2022-12-11T13:47:32.944Z,-0.64
2022-12-11T13:50:14.529Z,-0.70
2022-12-11T13:52:41.052Z,-0.66
2022-12-11T13:55:21.750Z,-0.73
2022-12-11T13:57:48.266Z,-0.68
2022-12-11T14:00:25.087Z,-0.72
2022-12-11T14:02:54.813Z,-0.71
2022-12-11T14:05:22.204Z,-0.72
2022-12-11T14:07:53.551Z,-0.76
2022-12-11T14:10:20.084Z,-0.76
2022-12-11T14:12:52.968Z,-0.83
2022-12-11T14:15:19.727Z,-0.86
2022-12-11T14:17:51.514Z,-0.89
2022-12-11T14:20:22.476Z,-0.92
2022-12-11T14:22:48.981Z,-0.94
2022-12-11T14:25:27.027Z,-0.96
2022-12-11T14:27:56.211Z,-1.01
2022-12-11T14:30:26.302Z,-1.04
2022-12-11T14:33:04.467Z,-1.01
2022-12-11T14:35:39.484Z,-1.03
2022-12-11T14:38:28.530Z,-1.05
2022-12-11T14:41:01.755Z,-1.09
2022-12-11T14:43:40.904Z,-1.08
2022-12-11T14:46:16.687Z,-1.15
2022-12-11T14:49:01.113Z,-1.15
2022-12-11T14:51:34.110Z,-1.09
2022-12-11T14:54:02.932Z,-1.06
2022-12-11T14:56:30.214Z,-1.07
2022-12-11T14:59:03.760Z,-1.06
2022-12-11T15:01:35.888Z,-1.10
2022-12-11T15:04:26.701Z,-1.09
2022-12-11T15:06:53.250Z,-1.11
2022-12-11T15:09:37.231Z,-1.22
2022-12-11T15:12:13.978Z,-1.26
2022-12-11T15:14:49.006Z,-1.27
2022-12-11T15:17:16.021Z,-1.29
2022-12-11T15:19:48.600Z,-1.37
2022-12-11T15:22:17.100Z,-1.38
2022-12-11T15:24:45.288Z,-1.37
2022-12-11T15:27:35.316Z,-1.37
2022-12-11T15:30:03.070Z,-1.38
2022-12-11T15:32:30.019Z,-1.38
2022-12-11T15:34:59.028Z,-1.43
2022-12-11T15:37:31.502Z,-1.40
2022-12-11T15:40:00.476Z,-1.39
2022-12-11T15:42:36.566Z,-1.40
2022-12-11T15:45:06.604Z,-1.40
2022-12-11T15:47:33.382Z,-1.38
2022-12-11T15:50:03.028Z,-1.39
2022-12-11T15:52:29.603Z,-1.38
2022-12-11T15:54:56.046Z,-1.37
2022-12-11T15:57:24.514Z,-1.37
2022-12-11T15:59:53.953Z,-1.44
2022-12-11T16:02:20.657Z,-1.38
2022-12-11T16:04:47.118Z,-1.39
2022-12-11T16:07:18.388Z,-1.39
2022-12-11T16:09:46.186Z,-1.40
2022-12-11T16:12:12.824Z,-1.39
2022-12-11T16:14:40.337Z,-1.37
2022-12-11T16:17:08.324Z,-1.36
2022-12-11T16:19:35.662Z,-1.35
2022-12-11T16:22:02.403Z,-1.34
2022-12-11T16:24:29.529Z,-1.35
2022-12-11T16:26:56.062Z,-1.35
2022-12-11T16:29:22.654Z,-1.36
2022-12-11T16:31:49.172Z,-1.38
2022-12-11T16:34:15.976Z,-1.37
2022-12-11T16:36:42.511Z,-1.36
2022-12-11T16:39:11.762Z,-1.40
2022-12-11T16:41:38.744Z,-1.35
2022-12-11T16:44:06.021Z,-1.35
2022-12-11T16:46:32.535Z,-1.36
2022-12-11T16:48:59.001Z,-1.36
2022-12-11T16:51:25.494Z,-1.35
2022-12-11T16:53:52.094Z,-1.35
2022-12-11T16:56:18.670Z,-1.36
2022-12-11T16:58:45.289Z,-1.34
2022-12-11T17:01:14.014Z,-1.39
2022-12-11T17:03:42.328Z,-1.34
2022-12-11T17:06:11.546Z,-1.37
2022-12-11T17:08:38.454Z,-1.30
2022-12-11T17:11:06.458Z,-1.35
2022-12-11T17:13:36.094Z,-1.26
2022-12-11T17:16:11.379Z,-1.29
2022-12-11T17:18:38.453Z,-1.23
2022-12-11T17:21:17.644Z,-1.20
2022-12-11T17:23:44.735Z,-1.20
2022-12-11T17:26:11.309Z,-1.19
2022-12-11T17:28:39.098Z,-1.18
2022-12-11T17:31:08.153Z,-1.18
2022-12-11T17:33:35.337Z,-1.16
2022-12-11T17:36:03.680Z,-1.17
2022-12-11T17:38:30.439Z,-1.16
2022-12-11T17:40:57.078Z,-1.16
2022-12-11T17:43:23.954Z,-1.14
2022-12-11T17:45:51.929Z,-1.14
2022-12-11T17:48:20.246Z,-1.12
2022-12-11T17:50:47.265Z,-1.11
2022-12-11T17:53:15.427Z,-1.12
2022-12-11T17:55:43.269Z,-1.13
2022-12-11T17:58:15.574Z,-1.17
2022-12-11T18:00:44.451Z,-1.17
2022-12-11T18:03:11.674Z,-1.12
2022-12-11T18:05:46.509Z,-1.12
2022-12-11T18:08:15.092Z,-1.11
2022-12-11T18:10:41.989Z,-1.10
2022-12-11T18:13:09.114Z,-1.09
2022-12-11T18:15:36.011Z,-1.08
2022-12-11T18:18:02.621Z,-1.07
2022-12-11T18:20:31.662Z,-1.13
2022-12-11T18:22:58.654Z,-1.08
2022-12-11T18:25:25.475Z,-1.06
2022-12-11T18:27:52.201Z,-1.05
2022-12-11T18:30:18.729Z,-1.03
2022-12-11T18:32:45.226Z,-1.03
2022-12-11T18:35:12.197Z,-1.02
2022-12-11T18:37:38.930Z,-1.01
2022-12-11T18:40:06.105Z,-1.00
2022-12-11T18:42:33.585Z,-0.98
2022-12-11T18:45:00.779Z,-0.97
2022-12-11T18:47:27.379Z,-0.95
2022-12-11T18:49:53.878Z,-0.93
2022-12-11T18:52:20.405Z,-0.91
2022-12-11T18:54:46.867Z,-0.89
2022-12-11T18:57:13.320Z,-0.89
2022-12-11T18:59:39.834Z,-0.88
2022-12-11T19:02:06.348Z,-0.87
2022-12-11T19:04:33.009Z,-0.86
2022-12-11T19:07:00.826Z,-0.85
2022-12-11T19:09:27.326Z,-0.82
2022-12-11T19:11:53.791Z,-0.82
2022-12-11T19:14:20.345Z,-0.82
2022-12-11T19:16:46.888Z,-0.82
2022-12-11T19:19:17.628Z,-0.86
2022-12-11T19:21:44.830Z,-0.84
2022-12-11T19:24:18.755Z,-0.88
2022-12-11T19:26:45.657Z,-0.84
2022-12-11T19:29:20.613Z,-0.82
2022-12-11T19:31:47.211Z,-0.80
2022-12-11T19:34:14.633Z,-0.80
2022-12-11T19:36:41.236Z,-0.79
2022-12-11T19:39:12.801Z,-0.75
2022-12-11T19:41:40.954Z,-0.74
2022-12-11T19:44:07.842Z,-0.73
2022-12-11T19:46:34.490Z,-0.73
2022-12-11T19:49:01.332Z,-0.70
2022-12-11T19:51:36.833Z,-0.79
2022-12-11T19:54:04.488Z,-0.67
2022-12-11T19:56:32.600Z,-0.65
2022-12-11T19:59:01.889Z,-0.63
2022-12-11T20:01:30.231Z,-0.59
2022-12-11T20:04:08.892Z,-0.62
2022-12-11T20:06:37.714Z,-0.59
2022-12-11T20:09:06.062Z,-0.50
2022-12-11T20:11:33.397Z,-0.50
2022-12-11T20:13:59.909Z,-0.48
2022-12-11T20:16:46.348Z,-0.44
2022-12-11T20:19:13.256Z,-0.41
2022-12-11T20:21:39.753Z,-0.38
2022-12-11T20:24:06.629Z,-0.35
2022-12-11T20:26:33.162Z,-0.31
2022-12-11T20:28:59.701Z,-0.30
2022-12-11T20:31:26.419Z,-0.29
2022-12-11T20:33:55.602Z,-0.26
2022-12-11T20:36:23.015Z,-0.24
2022-12-11T20:38:50.354Z,-0.24
2022-12-11T20:41:19.742Z,-0.23
2022-12-11T20:43:47.212Z,-0.25
2022-12-11T20:46:15.105Z,-0.22
2022-12-11T20:48:43.575Z,-0.20
2022-12-11T20:51:12.506Z,-0.20
2022-12-11T20:53:39.693Z,-0.21
2022-12-11T20:56:10.865Z,-0.22
2022-12-11T20:58:37.895Z,-0.17
2022-12-11T21:01:04.628Z,-0.17
2022-12-11T21:03:31.376Z,-0.17
2022-12-11T21:05:57.868Z,-0.16
2022-12-11T21:08:24.825Z,-0.14
2022-12-11T21:10:51.386Z,-0.13
2022-12-11T21:13:17.882Z,-0.12
2022-12-11T21:15:44.395Z,-0.11
2022-12-11T21:18:10.877Z,-0.10
2022-12-11T21:20:37.433Z,-0.09
2022-12-11T21:23:04.141Z,-0.09
2022-12-11T21:25:30.719Z,-0.08
2022-12-11T21:27:57.179Z,-0.08
2022-12-11T21:30:23.688Z,-0.07
2022-12-11T21:32:50.199Z,-0.07
2022-12-11T21:35:16.753Z,-0.06
2022-12-11T21:37:43.206Z,-0.06
2022-12-11T21:40:10.133Z,-0.06
2022-12-11T21:42:36.605Z,-0.06
2022-12-11T21:47:50.749Z,-0.07
2022-12-11T21:50:17.717Z,-0.08
2022-12-11T21:52:44.538Z,-0.09
2022-12-11T21:55:12.280Z,-0.11
2022-12-11T21:57:39.035Z,-0.11
2022-12-11T22:00:05.979Z,-0.10
2022-12-11T22:02:41.139Z,-0.12
2022-12-11T22:05:08.416Z,-0.11
2022-12-11T22:07:34.982Z,-0.12
2022-12-11T22:10:01.669Z,-0.13
2022-12-11T22:12:29.175Z,-0.13
2022-12-11T22:14:56.264Z,-0.15
2022-12-11T22:17:22.988Z,-0.14
2022-12-11T22:19:49.516Z,-0.15
2022-12-11T22:22:16.006Z,-0.15
2022-12-11T22:24:42.461Z,-0.17
2022-12-11T22:27:09.231Z,-0.21
2022-12-11T22:29:35.714Z,-0.22
2022-12-11T22:32:02.251Z,-0.24
2022-12-11T22:34:28.714Z,-0.27
2022-12-11T22:36:55.287Z,-0.28
2022-12-11T22:39:22.195Z,-0.29
2022-12-11T22:41:48.718Z,-0.31
2022-12-11T22:44:17.354Z,-0.33
2022-12-11T22:46:49.615Z,-0.36
2022-12-11T22:49:16.688Z,-0.38
2022-12-11T22:51:43.159Z,-0.41
2022-12-11T22:54:09.747Z,-0.43
2022-12-11T22:56:36.253Z,-0.44
2022-12-11T22:59:02.746Z,-0.47
2022-12-11T23:01:29.237Z,-0.46
2022-12-11T23:03:55.750Z,-0.46
2022-12-11T23:06:24.093Z,-0.48
2022-12-11T23:08:51.697Z,-0.49
2022-12-11T23:11:24.698Z,-0.51
2022-12-11T23:13:51.707Z,-0.50
2022-12-11T23:16:18.651Z,-0.53
2022-12-11T23:18:45.238Z,-0.53
2022-12-11T23:21:12.413Z,-0.53
2022-12-11T23:23:39.249Z,-0.53
2022-12-11T23:26:07.247Z,-0.54
2022-12-11T23:28:34.176Z,-0.55
2022-12-11T23:31:00.910Z,-0.55
2022-12-11T23:33:27.735Z,-0.53
2022-12-11T23:35:54.662Z,-0.53
2022-12-11T23:38:21.254Z,-0.51
2022-12-11T23:40:49.468Z,-0.49
2022-12-11T23:43:15.996Z,-0.49
2022-12-11T23:45:46.000Z,-0.48
2022-12-11T23:48:13.292Z,-0.47
2022-12-11T23:50:41.260Z,-0.46
2022-12-11T23:53:08.401Z,-0.43
2022-12-11T23:55:35.386Z,-0.45
2022-12-11T23:58:01.894Z,-0.45
